sensor_id;sensor_type;location;lat;lon;timestamp;temperature;humidity
52275;DHT22;38228;50.940;4.024;2024-03-06T00:02:07;7.50;99.90
52275;DHT22;38228;50.940;4.024;2024-03-06T00:04:33;7.50;99.90
52275;DHT22;38228;50.940;4.024;2024-03-06T00:06:59;7.50;99.90
52275;DHT22;38228;50.940;4.024;2024-03-06T00:09:25;7.60;99.90
52275;DHT22;38228;50.940;4.024;2024-03-06T00:11:56;7.60;99.90
52275;DHT22;38228;50.940;4.024;2024-03-06T00:14:22;7.50;99.90
52275;DHT22;38228;50.940;4.024;2024-03-06T00:16:49;7.40;99.90
52275;DHT22;38228;50.940;4.024;2024-03-06T00:19:18;7.30;99.90
52275;DHT22;38228;50.940;4.024;2024-03-06T00:21:44;7.30;99.90
52275;DHT22;38228;50.940;4.024;2024-03-06T00:24:14;7.30;99.90
52275;DHT22;38228;50.940;4.024;2024-03-06T00:26:44;7.40;99.90
52275;DHT22;38228;50.940;4.024;2024-03-06T00:29:10;7.30;99.90
52275;DHT22;38228;50.940;4.024;2024-03-06T00:31:37;7.30;99.90
52275;DHT22;38228;50.940;4.024;2024-03-06T00:34:07;7.20;99.90
52275;DHT22;38228;50.940;4.024;2024-03-06T00:36:33;7.20;99.90
52275;DHT22;38228;50.940;4.024;2024-03-06T00:38:59;7.20;99.90
52275;DHT22;38228;50.940;4.024;2024-03-06T00:41:24;7.20;99.90
52275;DHT22;38228;50.940;4.024;2024-03-06T00:43:50;7.10;99.90
52275;DHT22;38228;50.940;4.024;2024-03-06T00:46:16;7.20;99.90
52275;DHT22;38228;50.940;4.024;2024-03-06T00:48:41;7.20;99.90
52275;DHT22;38228;50.940;4.024;2024-03-06T00:51:07;7.20;99.90
52275;DHT22;38228;50.940;4.024;2024-03-06T00:53:35;7.10;99.90
52275;DHT22;38228;50.940;4.024;2024-03-06T00:56:00;7.10;99.90
52275;DHT22;38228;50.940;4.024;2024-03-06T00:58:26;7.10;99.90
52275;DHT22;38228;50.940;4.024;2024-03-06T01:00:52;7.00;99.90
52275;DHT22;38228;50.940;4.024;2024-03-06T01:03:17;7.00;99.90
52275;DHT22;38228;50.940;4.024;2024-03-06T01:05:43;7.00;99.90
52275;DHT22;38228;50.940;4.024;2024-03-06T01:08:09;7.00;99.90
52275;DHT22;38228;50.940;4.024;2024-03-06T01:10:34;6.90;99.90
52275;DHT22;38228;50.940;4.024;2024-03-06T01:13:01;6.80;99.90
52275;DHT22;38228;50.940;4.024;2024-03-06T01:15:26;6.80;99.90
52275;DHT22;38228;50.940;4.024;2024-03-06T01:17:52;6.90;99.90
52275;DHT22;38228;50.940;4.024;2024-03-06T01:20:19;6.90;99.90
52275;DHT22;38228;50.940;4.024;2024-03-06T01:22:45;6.80;99.90
52275;DHT22;38228;50.940;4.024;2024-03-06T01:25:12;6.80;99.90
52275;DHT22;38228;50.940;4.024;2024-03-06T01:27:37;6.80;99.90
52275;DHT22;38228;50.940;4.024;2024-03-06T01:30:03;6.70;99.90
52275;DHT22;38228;50.940;4.024;2024-03-06T01:32:29;6.60;99.90
52275;DHT22;38228;50.940;4.024;2024-03-06T01:34:55;6.70;99.90
52275;DHT22;38228;50.940;4.024;2024-03-06T01:37:21;6.70;99.90
52275;DHT22;38228;50.940;4.024;2024-03-06T01:39:46;6.70;99.90
52275;DHT22;38228;50.940;4.024;2024-03-06T01:42:12;6.60;99.90
52275;DHT22;38228;50.940;4.024;2024-03-06T01:44:38;6.50;99.90
52275;DHT22;38228;50.940;4.024;2024-03-06T01:47:03;6.40;99.90
52275;DHT22;38228;50.940;4.024;2024-03-06T01:49:29;6.30;99.90
52275;DHT22;38228;50.940;4.024;2024-03-06T01:51:57;6.30;99.90
52275;DHT22;38228;50.940;4.024;2024-03-06T01:54:24;6.30;99.90
52275;DHT22;38228;50.940;4.024;2024-03-06T01:56:51;6.20;99.90
52275;DHT22;38228;50.940;4.024;2024-03-06T01:59:19;6.30;99.90
52275;DHT22;38228;50.940;4.024;2024-03-06T02:01:46;6.20;99.90
52275;DHT22;38228;50.940;4.024;2024-03-06T02:04:12;6.00;99.90
52275;DHT22;38228;50.940;4.024;2024-03-06T02:06:39;6.00;99.90
52275;DHT22;38228;50.940;4.024;2024-03-06T02:09:05;6.00;99.90
52275;DHT22;38228;50.940;4.024;2024-03-06T02:11:33;6.00;99.90
52275;DHT22;38228;50.940;4.024;2024-03-06T02:13:59;6.10;99.90
52275;DHT22;38228;50.940;4.024;2024-03-06T02:16:24;6.20;99.90
52275;DHT22;38228;50.940;4.024;2024-03-06T02:18:53;6.10;99.90
52275;DHT22;38228;50.940;4.024;2024-03-06T02:21:21;6.20;99.90
52275;DHT22;38228;50.940;4.024;2024-03-06T02:23:47;6.10;99.90
52275;DHT22;38228;50.940;4.024;2024-03-06T02:26:13;6.00;99.90
52275;DHT22;38228;50.940;4.024;2024-03-06T02:28:38;6.00;99.90
52275;DHT22;38228;50.940;4.024;2024-03-06T02:31:04;5.90;99.90
52275;DHT22;38228;50.940;4.024;2024-03-06T02:33:32;5.90;99.90
52275;DHT22;38228;50.940;4.024;2024-03-06T02:35:59;5.90;99.90
52275;DHT22;38228;50.940;4.024;2024-03-06T02:38:25;5.80;99.90
52275;DHT22;38228;50.940;4.024;2024-03-06T02:40:51;5.70;99.90
52275;DHT22;38228;50.940;4.024;2024-03-06T02:43:16;5.70;99.90
52275;DHT22;38228;50.940;4.024;2024-03-06T02:45:42;5.60;99.90
52275;DHT22;38228;50.940;4.024;2024-03-06T02:48:08;5.60;99.90
52275;DHT22;38228;50.940;4.024;2024-03-06T02:50:33;5.60;99.90
52275;DHT22;38228;50.940;4.024;2024-03-06T02:52:59;5.50;99.90
52275;DHT22;38228;50.940;4.024;2024-03-06T02:55:25;5.60;99.90
52275;DHT22;38228;50.940;4.024;2024-03-06T02:57:50;5.70;99.90
52275;DHT22;38228;50.940;4.024;2024-03-06T03:00:16;5.60;99.90
52275;DHT22;38228;50.940;4.024;2024-03-06T03:02:42;5.60;99.90
52275;DHT22;38228;50.940;4.024;2024-03-06T03:05:09;5.50;99.90
52275;DHT22;38228;50.940;4.024;2024-03-06T03:07:34;5.40;99.90
52275;DHT22;38228;50.940;4.024;2024-03-06T03:10:00;5.40;99.90
52275;DHT22;38228;50.940;4.024;2024-03-06T03:12:26;5.40;99.90
52275;DHT22;38228;50.940;4.024;2024-03-06T03:14:51;5.40;99.90
52275;DHT22;38228;50.940;4.024;2024-03-06T03:17:20;5.40;99.90
52275;DHT22;38228;50.940;4.024;2024-03-06T03:19:46;5.30;99.90
52275;DHT22;38228;50.940;4.024;2024-03-06T03:22:11;5.20;99.90
52275;DHT22;38228;50.940;4.024;2024-03-06T03:24:39;5.20;99.90
52275;DHT22;38228;50.940;4.024;2024-03-06T03:27:06;5.10;99.90
52275;DHT22;38228;50.940;4.024;2024-03-06T03:29:33;5.20;99.90
52275;DHT22;38228;50.940;4.024;2024-03-06T03:31:58;5.10;99.90
52275;DHT22;38228;50.940;4.024;2024-03-06T03:34:24;5.00;99.90
52275;DHT22;38228;50.940;4.024;2024-03-06T03:36:50;5.10;99.90
52275;DHT22;38228;50.940;4.024;2024-03-06T03:39:15;5.00;99.90
52275;DHT22;38228;50.940;4.024;2024-03-06T03:41:45;5.10;99.90
52275;DHT22;38228;50.940;4.024;2024-03-06T03:44:14;5.00;99.90
52275;DHT22;38228;50.940;4.024;2024-03-06T03:46:40;4.90;99.90
52275;DHT22;38228;50.940;4.024;2024-03-06T03:49:06;4.90;99.90
52275;DHT22;38228;50.940;4.024;2024-03-06T03:51:32;4.90;99.90
52275;DHT22;38228;50.940;4.024;2024-03-06T03:53:58;4.90;99.90
52275;DHT22;38228;50.940;4.024;2024-03-06T03:56:23;4.90;99.90
52275;DHT22;38228;50.940;4.024;2024-03-06T03:58:49;4.90;99.90
52275;DHT22;38228;50.940;4.024;2024-03-06T04:01:15;4.90;99.90
52275;DHT22;38228;50.940;4.024;2024-03-06T04:03:40;4.90;99.90
52275;DHT22;38228;50.940;4.024;2024-03-06T04:06:08;4.90;99.90
52275;DHT22;38228;50.940;4.024;2024-03-06T04:08:34;4.90;99.90
52275;DHT22;38228;50.940;4.024;2024-03-06T04:10:59;4.90;99.90
52275;DHT22;38228;50.940;4.024;2024-03-06T04:13:25;4.90;99.90
52275;DHT22;38228;50.940;4.024;2024-03-06T04:15:51;4.80;99.90
52275;DHT22;38228;50.940;4.024;2024-03-06T04:18:17;4.80;99.90
52275;DHT22;38228;50.940;4.024;2024-03-06T04:20:42;4.80;99.90
52275;DHT22;38228;50.940;4.024;2024-03-06T04:23:08;4.70;99.90
52275;DHT22;38228;50.940;4.024;2024-03-06T04:25:34;4.70;99.90
52275;DHT22;38228;50.940;4.024;2024-03-06T04:28:00;4.60;99.90
52275;DHT22;38228;50.940;4.024;2024-03-06T04:30:25;4.50;99.90
52275;DHT22;38228;50.940;4.024;2024-03-06T04:32:51;4.40;99.90
52275;DHT22;38228;50.940;4.024;2024-03-06T04:35:17;4.40;99.90
52275;DHT22;38228;50.940;4.024;2024-03-06T04:37:42;4.40;99.90
52275;DHT22;38228;50.940;4.024;2024-03-06T04:40:09;4.40;99.90
52275;DHT22;38228;50.940;4.024;2024-03-06T04:42:35;4.40;99.90
52275;DHT22;38228;50.940;4.024;2024-03-06T04:45:02;4.30;99.90
52275;DHT22;38228;50.940;4.024;2024-03-06T04:47:28;4.20;99.90
52275;DHT22;38228;50.940;4.024;2024-03-06T04:49:54;4.20;99.90
52275;DHT22;38228;50.940;4.024;2024-03-06T04:52:20;4.10;99.90
52275;DHT22;38228;50.940;4.024;2024-03-06T04:54:45;4.10;99.90
52275;DHT22;38228;50.940;4.024;2024-03-06T04:57:11;4.10;99.90
52275;DHT22;38228;50.940;4.024;2024-03-06T04:59:37;4.20;99.90
52275;DHT22;38228;50.940;4.024;2024-03-06T05:02:02;4.20;99.90
52275;DHT22;38228;50.940;4.024;2024-03-06T05:04:29;4.10;99.90
52275;DHT22;38228;50.940;4.024;2024-03-06T05:06:54;4.20;99.90
52275;DHT22;38228;50.940;4.024;2024-03-06T05:09:21;4.10;99.90
52275;DHT22;38228;50.940;4.024;2024-03-06T05:11:46;4.00;99.90
52275;DHT22;38228;50.940;4.024;2024-03-06T05:14:16;4.00;99.90
52275;DHT22;38228;50.940;4.024;2024-03-06T05:16:41;4.00;99.90
52275;DHT22;38228;50.940;4.024;2024-03-06T05:19:07;4.00;99.90
52275;DHT22;38228;50.940;4.024;2024-03-06T05:21:33;4.10;99.90
52275;DHT22;38228;50.940;4.024;2024-03-06T05:24:00;4.10;99.90
52275;DHT22;38228;50.940;4.024;2024-03-06T05:26:26;4.10;99.90
52275;DHT22;38228;50.940;4.024;2024-03-06T05:28:51;4.20;99.90
52275;DHT22;38228;50.940;4.024;2024-03-06T05:31:18;4.20;99.90
52275;DHT22;38228;50.940;4.024;2024-03-06T05:33:46;4.30;99.90
52275;DHT22;38228;50.940;4.024;2024-03-06T05:36:12;4.30;99.90
52275;DHT22;38228;50.940;4.024;2024-03-06T05:38:41;4.30;99.90
52275;DHT22;38228;50.940;4.024;2024-03-06T05:41:07;4.30;99.90
52275;DHT22;38228;50.940;4.024;2024-03-06T05:43:34;4.30;99.90
52275;DHT22;38228;50.940;4.024;2024-03-06T05:45:59;4.30;99.90
52275;DHT22;38228;50.940;4.024;2024-03-06T05:48:26;4.40;99.90
52275;DHT22;38228;50.940;4.024;2024-03-06T05:50:52;4.40;99.90
52275;DHT22;38228;50.940;4.024;2024-03-06T05:53:18;4.30;99.90
52275;DHT22;38228;50.940;4.024;2024-03-06T05:55:44;4.30;99.90
52275;DHT22;38228;50.940;4.024;2024-03-06T05:58:09;4.30;99.90
52275;DHT22;38228;50.940;4.024;2024-03-06T06:00:35;4.30;99.90
52275;DHT22;38228;50.940;4.024;2024-03-06T06:03:01;4.30;99.90
52275;DHT22;38228;50.940;4.024;2024-03-06T06:05:27;4.30;99.90
52275;DHT22;38228;50.940;4.024;2024-03-06T06:07:52;4.30;99.90
52275;DHT22;38228;50.940;4.024;2024-03-06T06:10:18;4.30;99.90
52275;DHT22;38228;50.940;4.024;2024-03-06T06:12:44;4.30;99.90
52275;DHT22;38228;50.940;4.024;2024-03-06T06:15:10;4.30;99.90
52275;DHT22;38228;50.940;4.024;2024-03-06T06:17:36;4.40;99.90
52275;DHT22;38228;50.940;4.024;2024-03-06T06:20:06;4.40;99.90
52275;DHT22;38228;50.940;4.024;2024-03-06T06:22:37;4.40;99.90
52275;DHT22;38228;50.940;4.024;2024-03-06T06:25:03;4.40;99.90
52275;DHT22;38228;50.940;4.024;2024-03-06T06:27:29;4.40;99.90
52275;DHT22;38228;50.940;4.024;2024-03-06T06:29:55;4.40;99.90
52275;DHT22;38228;50.940;4.024;2024-03-06T06:32:21;4.30;99.90
52275;DHT22;38228;50.940;4.024;2024-03-06T06:34:46;4.40;99.90
52275;DHT22;38228;50.940;4.024;2024-03-06T06:37:12;4.40;99.90
52275;DHT22;38228;50.940;4.024;2024-03-06T06:39:38;4.40;99.90
52275;DHT22;38228;50.940;4.024;2024-03-06T06:42:04;4.40;99.90
52275;DHT22;38228;50.940;4.024;2024-03-06T06:44:30;4.30;99.90
52275;DHT22;38228;50.940;4.024;2024-03-06T06:46:55;4.30;99.90
52275;DHT22;38228;50.940;4.024;2024-03-06T06:49:21;4.40;99.90
52275;DHT22;38228;50.940;4.024;2024-03-06T06:51:47;4.60;99.90
52275;DHT22;38228;50.940;4.024;2024-03-06T06:54:15;4.60;99.90
52275;DHT22;38228;50.940;4.024;2024-03-06T06:56:40;4.60;99.90
52275;DHT22;38228;50.940;4.024;2024-03-06T06:59:06;4.60;99.90
52275;DHT22;38228;50.940;4.024;2024-03-06T07:01:31;4.60;99.90
52275;DHT22;38228;50.940;4.024;2024-03-06T07:03:58;4.70;99.90
52275;DHT22;38228;50.940;4.024;2024-03-06T07:06:27;4.60;99.90
52275;DHT22;38228;50.940;4.024;2024-03-06T07:08:52;4.60;99.90
52275;DHT22;38228;50.940;4.024;2024-03-06T07:11:18;4.70;99.90
52275;DHT22;38228;50.940;4.024;2024-03-06T07:13:44;4.80;99.90
52275;DHT22;38228;50.940;4.024;2024-03-06T07:16:10;4.80;99.90
52275;DHT22;38228;50.940;4.024;2024-03-06T07:18:35;4.90;99.90
52275;DHT22;38228;50.940;4.024;2024-03-06T07:21:01;5.00;99.90
52275;DHT22;38228;50.940;4.024;2024-03-06T07:23:27;5.10;99.90
52275;DHT22;38228;50.940;4.024;2024-03-06T07:25:55;5.10;99.90
52275;DHT22;38228;50.940;4.024;2024-03-06T07:28:23;5.20;99.90
52275;DHT22;38228;50.940;4.024;2024-03-06T07:30:48;5.30;99.90
52275;DHT22;38228;50.940;4.024;2024-03-06T07:33:14;5.30;99.90
52275;DHT22;38228;50.940;4.024;2024-03-06T07:35:40;5.40;99.90
52275;DHT22;38228;50.940;4.024;2024-03-06T07:38:05;5.50;99.90
52275;DHT22;38228;50.940;4.024;2024-03-06T07:40:31;5.60;99.90
52275;DHT22;38228;50.940;4.024;2024-03-06T07:42:57;5.70;99.90
52275;DHT22;38228;50.940;4.024;2024-03-06T07:45:25;5.90;99.90
52275;DHT22;38228;50.940;4.024;2024-03-06T07:47:51;6.10;99.90
52275;DHT22;38228;50.940;4.024;2024-03-06T07:50:17;6.30;99.90
52275;DHT22;38228;50.940;4.024;2024-03-06T07:52:45;6.40;99.90
52275;DHT22;38228;50.940;4.024;2024-03-06T07:55:11;6.60;99.90
52275;DHT22;38228;50.940;4.024;2024-03-06T07:57:37;6.70;99.90
52275;DHT22;38228;50.940;4.024;2024-03-06T08:00:04;7.10;99.90
52275;DHT22;38228;50.940;4.024;2024-03-06T08:02:42;7.30;99.90
52275;DHT22;38228;50.940;4.024;2024-03-06T08:05:15;7.30;99.90
52275;DHT22;38228;50.940;4.024;2024-03-06T08:07:42;7.40;99.90
52275;DHT22;38228;50.940;4.024;2024-03-06T08:10:11;7.50;99.90
52275;DHT22;38228;50.940;4.024;2024-03-06T08:12:43;7.50;99.90
52275;DHT22;38228;50.940;4.024;2024-03-06T08:15:11;7.50;99.90
52275;DHT22;38228;50.940;4.024;2024-03-06T08:17:39;7.60;99.90
52275;DHT22;38228;50.940;4.024;2024-03-06T08:20:05;7.80;99.90
52275;DHT22;38228;50.940;4.024;2024-03-06T08:22:37;7.80;99.90
52275;DHT22;38228;50.940;4.024;2024-03-06T08:25:07;8.00;99.90
52275;DHT22;38228;50.940;4.024;2024-03-06T08:27:35;8.10;99.90
52275;DHT22;38228;50.940;4.024;2024-03-06T08:30:02;8.20;99.90
52275;DHT22;38228;50.940;4.024;2024-03-06T08:32:30;8.20;99.90
52275;DHT22;38228;50.940;4.024;2024-03-06T08:34:56;8.30;99.90
52275;DHT22;38228;50.940;4.024;2024-03-06T08:37:22;8.50;99.90
52275;DHT22;38228;50.940;4.024;2024-03-06T08:39:48;8.60;99.90
52275;DHT22;38228;50.940;4.024;2024-03-06T08:42:14;8.60;99.90
52275;DHT22;38228;50.940;4.024;2024-03-06T08:44:44;8.70;99.90
52275;DHT22;38228;50.940;4.024;2024-03-06T08:47:10;8.80;99.90
52275;DHT22;38228;50.940;4.024;2024-03-06T08:49:35;8.70;99.90
52275;DHT22;38228;50.940;4.024;2024-03-06T08:52:01;8.80;99.90
52275;DHT22;38228;50.940;4.024;2024-03-06T08:54:27;9.00;99.90
52275;DHT22;38228;50.940;4.024;2024-03-06T08:56:52;9.10;99.90
52275;DHT22;38228;50.940;4.024;2024-03-06T08:59:23;9.30;99.90
52275;DHT22;38228;50.940;4.024;2024-03-06T09:01:52;9.30;99.90
52275;DHT22;38228;50.940;4.024;2024-03-06T09:04:17;9.20;99.90
52275;DHT22;38228;50.940;4.024;2024-03-06T09:06:43;9.30;99.90
52275;DHT22;38228;50.940;4.024;2024-03-06T09:09:09;9.30;99.90
52275;DHT22;38228;50.940;4.024;2024-03-06T09:11:35;9.40;99.90
52275;DHT22;38228;50.940;4.024;2024-03-06T09:14:00;9.70;99.90
52275;DHT22;38228;50.940;4.024;2024-03-06T09:16:26;9.70;99.90
52275;DHT22;38228;50.940;4.024;2024-03-06T09:18:52;9.70;99.90
52275;DHT22;38228;50.940;4.024;2024-03-06T09:21:18;9.80;99.90
52275;DHT22;38228;50.940;4.024;2024-03-06T09:23:45;9.80;99.90
52275;DHT22;38228;50.940;4.024;2024-03-06T09:26:11;9.80;99.90
52275;DHT22;38228;50.940;4.024;2024-03-06T09:28:36;9.90;99.90
52275;DHT22;38228;50.940;4.024;2024-03-06T09:31:04;10.00;99.90
52275;DHT22;38228;50.940;4.024;2024-03-06T09:33:30;10.10;99.90
52275;DHT22;38228;50.940;4.024;2024-03-06T09:35:55;10.20;99.90
52275;DHT22;38228;50.940;4.024;2024-03-06T09:38:22;10.20;99.90
52275;DHT22;38228;50.940;4.024;2024-03-06T09:40:48;10.30;99.90
52275;DHT22;38228;50.940;4.024;2024-03-06T09:43:14;10.40;99.90
52275;DHT22;38228;50.940;4.024;2024-03-06T09:45:40;10.60;99.90
52275;DHT22;38228;50.940;4.024;2024-03-06T09:48:07;10.60;99.90
52275;DHT22;38228;50.940;4.024;2024-03-06T09:50:35;10.70;99.90
52275;DHT22;38228;50.940;4.024;2024-03-06T09:53:08;10.80;99.90
52275;DHT22;38228;50.940;4.024;2024-03-06T09:55:35;11.00;99.90
52275;DHT22;38228;50.940;4.024;2024-03-06T09:58:01;11.00;99.90
52275;DHT22;38228;50.940;4.024;2024-03-06T10:00:28;11.00;99.90
52275;DHT22;38228;50.940;4.024;2024-03-06T10:02:58;11.00;99.90
52275;DHT22;38228;50.940;4.024;2024-03-06T10:05:25;11.10;99.90
52275;DHT22;38228;50.940;4.024;2024-03-06T10:07:53;11.20;99.90
52275;DHT22;38228;50.940;4.024;2024-03-06T10:10:19;11.40;99.90
52275;DHT22;38228;50.940;4.024;2024-03-06T10:12:46;11.40;99.90
52275;DHT22;38228;50.940;4.024;2024-03-06T10:15:13;11.50;99.90
52275;DHT22;38228;50.940;4.024;2024-03-06T10:17:39;11.60;99.90
52275;DHT22;38228;50.940;4.024;2024-03-06T10:20:25;11.60;99.90
52275;DHT22;38228;50.940;4.024;2024-03-06T10:22:54;11.80;99.90
52275;DHT22;38228;50.940;4.024;2024-03-06T10:25:20;12.00;99.90
52275;DHT22;38228;50.940;4.024;2024-03-06T10:28:07;12.20;99.90
52275;DHT22;38228;50.940;4.024;2024-03-06T10:30:37;12.30;99.90
52275;DHT22;38228;50.940;4.024;2024-03-06T10:33:07;12.10;99.90
52275;DHT22;38228;50.940;4.024;2024-03-06T10:35:34;12.20;99.90
52275;DHT22;38228;50.940;4.024;2024-03-06T10:38:02;12.20;99.90
52275;DHT22;38228;50.940;4.024;2024-03-06T10:40:38;12.20;99.90
52275;DHT22;38228;50.940;4.024;2024-03-06T10:43:05;12.30;99.90
52275;DHT22;38228;50.940;4.024;2024-03-06T10:45:47;12.20;99.90
52275;DHT22;38228;50.940;4.024;2024-03-06T10:48:14;12.00;99.90
52275;DHT22;38228;50.940;4.024;2024-03-06T10:50:41;12.10;99.90
52275;DHT22;38228;50.940;4.024;2024-03-06T10:53:17;11.90;99.90
52275;DHT22;38228;50.940;4.024;2024-03-06T10:55:43;11.90;99.90
52275;DHT22;38228;50.940;4.024;2024-03-06T10:58:10;12.10;99.90
52275;DHT22;38228;50.940;4.024;2024-03-06T11:00:41;12.30;99.90
52275;DHT22;38228;50.940;4.024;2024-03-06T11:03:10;12.30;99.90
52275;DHT22;38228;50.940;4.024;2024-03-06T11:05:39;12.60;99.90
52275;DHT22;38228;50.940;4.024;2024-03-06T11:08:09;12.80;99.90
52275;DHT22;38228;50.940;4.024;2024-03-06T11:10:37;13.10;99.90
52275;DHT22;38228;50.940;4.024;2024-03-06T11:13:08;13.20;99.90
52275;DHT22;38228;50.940;4.024;2024-03-06T11:15:34;13.00;99.90
52275;DHT22;38228;50.940;4.024;2024-03-06T11:23:29;13.40;99.90
52275;DHT22;38228;50.940;4.024;2024-03-06T11:28:22;13.00;99.90
52275;DHT22;38228;50.940;4.024;2024-03-06T11:33:19;13.30;99.90
52275;DHT22;38228;50.940;4.024;2024-03-06T11:36:20;13.60;99.90
52275;DHT22;38228;50.940;4.024;2024-03-06T11:39:07;14.00;99.90
52275;DHT22;38228;50.940;4.024;2024-03-06T11:44:28;14.30;99.90
52275;DHT22;38228;50.940;4.024;2024-03-06T11:47:03;14.50;99.90
52275;DHT22;38228;50.940;4.024;2024-03-06T11:49:30;14.50;99.90
52275;DHT22;38228;50.940;4.024;2024-03-06T11:52:07;14.40;99.90
52275;DHT22;38228;50.940;4.024;2024-03-06T11:54:36;14.20;99.90
52275;DHT22;38228;50.940;4.024;2024-03-06T11:57:03;13.80;99.90
52275;DHT22;38228;50.940;4.024;2024-03-06T11:59:34;14.00;99.90
52275;DHT22;38228;50.940;4.024;2024-03-06T12:02:02;14.20;99.90
52275;DHT22;38228;50.940;4.024;2024-03-06T12:04:34;14.10;99.90
52275;DHT22;38228;50.940;4.024;2024-03-06T12:07:03;14.00;99.90
52275;DHT22;38228;50.940;4.024;2024-03-06T12:09:35;13.90;99.90
52275;DHT22;38228;50.940;4.024;2024-03-06T12:12:01;13.80;99.90
52275;DHT22;38228;50.940;4.024;2024-03-06T12:14:28;13.60;99.90
52275;DHT22;38228;50.940;4.024;2024-03-06T12:17:01;13.80;99.90
52275;DHT22;38228;50.940;4.024;2024-03-06T12:19:36;13.90;99.90
52275;DHT22;38228;50.940;4.024;2024-03-06T12:22:03;14.10;99.90
52275;DHT22;38228;50.940;4.024;2024-03-06T12:24:30;14.00;99.90
52275;DHT22;38228;50.940;4.024;2024-03-06T12:27:03;14.10;99.90
52275;DHT22;38228;50.940;4.024;2024-03-06T12:29:30;13.90;99.90
52275;DHT22;38228;50.940;4.024;2024-03-06T12:31:57;14.00;99.90
52275;DHT22;38228;50.940;4.024;2024-03-06T12:34:23;14.30;99.90
52275;DHT22;38228;50.940;4.024;2024-03-06T12:36:49;14.20;99.90
52275;DHT22;38228;50.940;4.024;2024-03-06T12:39:15;14.00;99.90
52275;DHT22;38228;50.940;4.024;2024-03-06T12:41:43;14.00;99.90
52275;DHT22;38228;50.940;4.024;2024-03-06T12:44:10;13.90;99.90
52275;DHT22;38228;50.940;4.024;2024-03-06T12:46:36;13.70;99.90
52275;DHT22;38228;50.940;4.024;2024-03-06T12:49:02;13.60;99.90
52275;DHT22;38228;50.940;4.024;2024-03-06T12:51:27;13.70;99.90
52275;DHT22;38228;50.940;4.024;2024-03-06T12:53:53;13.80;99.90
52275;DHT22;38228;50.940;4.024;2024-03-06T12:56:19;14.10;99.90
52275;DHT22;38228;50.940;4.024;2024-03-06T12:58:45;14.30;99.90
52275;DHT22;38228;50.940;4.024;2024-03-06T13:01:11;14.40;99.90
52275;DHT22;38228;50.940;4.024;2024-03-06T13:03:37;14.50;99.90
52275;DHT22;38228;50.940;4.024;2024-03-06T13:06:03;14.60;99.90
52275;DHT22;38228;50.940;4.024;2024-03-06T13:08:30;14.70;99.90
52275;DHT22;38228;50.940;4.024;2024-03-06T13:10:56;14.90;99.90
52275;DHT22;38228;50.940;4.024;2024-03-06T13:13:22;15.00;99.90
52275;DHT22;38228;50.940;4.024;2024-03-06T13:15:51;14.80;99.90
52275;DHT22;38228;50.940;4.024;2024-03-06T13:18:17;14.80;99.90
52275;DHT22;38228;50.940;4.024;2024-03-06T13:20:44;14.90;99.90
52275;DHT22;38228;50.940;4.024;2024-03-06T13:23:10;14.90;99.90
52275;DHT22;38228;50.940;4.024;2024-03-06T13:25:36;15.00;99.90
52275;DHT22;38228;50.940;4.024;2024-03-06T13:28:02;15.20;99.90
52275;DHT22;38228;50.940;4.024;2024-03-06T13:30:28;15.20;99.90
52275;DHT22;38228;50.940;4.024;2024-03-06T13:32:54;15.30;99.90
52275;DHT22;38228;50.940;4.024;2024-03-06T13:35:20;15.20;99.90
52275;DHT22;38228;50.940;4.024;2024-03-06T13:37:46;15.10;99.90
52275;DHT22;38228;50.940;4.024;2024-03-06T13:40:12;14.80;99.90
52275;DHT22;38228;50.940;4.024;2024-03-06T13:42:42;14.80;99.90
52275;DHT22;38228;50.940;4.024;2024-03-06T13:45:08;14.50;99.90
52275;DHT22;38228;50.940;4.024;2024-03-06T13:47:40;14.50;99.90
52275;DHT22;38228;50.940;4.024;2024-03-06T13:50:08;14.60;99.90
52275;DHT22;38228;50.940;4.024;2024-03-06T13:52:34;14.70;99.90
52275;DHT22;38228;50.940;4.024;2024-03-06T13:55:00;14.80;99.90
52275;DHT22;38228;50.940;4.024;2024-03-06T13:57:33;14.90;99.90
52275;DHT22;38228;50.940;4.024;2024-03-06T14:00:03;15.20;99.90
52275;DHT22;38228;50.940;4.024;2024-03-06T14:02:31;15.50;99.90
52275;DHT22;38228;50.940;4.024;2024-03-06T14:04:57;15.70;99.90
52275;DHT22;38228;50.940;4.024;2024-03-06T14:07:23;16.10;99.90
52275;DHT22;38228;50.940;4.024;2024-03-06T14:09:50;16.20;99.90
52275;DHT22;38228;50.940;4.024;2024-03-06T14:12:16;16.10;99.90
52275;DHT22;38228;50.940;4.024;2024-03-06T14:14:42;16.10;99.90
52275;DHT22;38228;50.940;4.024;2024-03-06T14:17:08;16.50;99.90
52275;DHT22;38228;50.940;4.024;2024-03-06T14:19:34;16.70;99.90
52275;DHT22;38228;50.940;4.024;2024-03-06T14:22:00;16.40;99.90
52275;DHT22;38228;50.940;4.024;2024-03-06T14:24:26;16.60;99.90
52275;DHT22;38228;50.940;4.024;2024-03-06T14:26:51;16.70;99.90
52275;DHT22;38228;50.940;4.024;2024-03-06T14:29:17;16.10;99.90
52275;DHT22;38228;50.940;4.024;2024-03-06T14:31:43;16.00;99.90
52275;DHT22;38228;50.940;4.024;2024-03-06T14:34:09;16.30;99.90
52275;DHT22;38228;50.940;4.024;2024-03-06T14:36:35;16.40;99.90
52275;DHT22;38228;50.940;4.024;2024-03-06T14:39:01;16.50;99.90
52275;DHT22;38228;50.940;4.024;2024-03-06T14:41:27;16.40;99.90
52275;DHT22;38228;50.940;4.024;2024-03-06T14:43:53;16.50;99.90
52275;DHT22;38228;50.940;4.024;2024-03-06T14:46:19;16.40;99.90
52275;DHT22;38228;50.940;4.024;2024-03-06T14:48:45;15.90;99.90
52275;DHT22;38228;50.940;4.024;2024-03-06T14:51:11;16.20;99.90
52275;DHT22;38228;50.940;4.024;2024-03-06T14:53:37;16.40;99.90
52275;DHT22;38228;50.940;4.024;2024-03-06T14:56:04;16.50;99.90
52275;DHT22;38228;50.940;4.024;2024-03-06T14:58:29;16.00;99.90
52275;DHT22;38228;50.940;4.024;2024-03-06T15:00:55;16.10;99.90
52275;DHT22;38228;50.940;4.024;2024-03-06T15:03:21;16.20;99.90
52275;DHT22;38228;50.940;4.024;2024-03-06T15:05:47;16.00;99.90
52275;DHT22;38228;50.940;4.024;2024-03-06T15:08:12;15.60;99.90
52275;DHT22;38228;50.940;4.024;2024-03-06T15:10:38;15.20;99.90
52275;DHT22;38228;50.940;4.024;2024-03-06T15:13:04;14.80;99.90
52275;DHT22;38228;50.940;4.024;2024-03-06T15:15:30;14.70;99.90
52275;DHT22;38228;50.940;4.024;2024-03-06T15:17:59;14.50;99.90
52275;DHT22;38228;50.940;4.024;2024-03-06T15:20:25;14.50;99.90
52275;DHT22;38228;50.940;4.024;2024-03-06T15:22:50;14.50;99.90
52275;DHT22;38228;50.940;4.024;2024-03-06T15:25:17;14.30;99.90
52275;DHT22;38228;50.940;4.024;2024-03-06T15:27:43;14.20;99.90
52275;DHT22;38228;50.940;4.024;2024-03-06T15:30:10;14.10;99.90
52275;DHT22;38228;50.940;4.024;2024-03-06T15:32:37;13.90;99.90
52275;DHT22;38228;50.940;4.024;2024-03-06T15:35:04;14.00;99.90
52275;DHT22;38228;50.940;4.024;2024-03-06T15:37:31;14.00;99.90
52275;DHT22;38228;50.940;4.024;2024-03-06T15:39:57;13.90;99.90
52275;DHT22;38228;50.940;4.024;2024-03-06T15:42:24;13.90;99.90
52275;DHT22;38228;50.940;4.024;2024-03-06T15:44:51;13.90;99.90
52275;DHT22;38228;50.940;4.024;2024-03-06T15:47:18;13.90;99.90
52275;DHT22;38228;50.940;4.024;2024-03-06T15:49:44;13.90;99.90
52275;DHT22;38228;50.940;4.024;2024-03-06T15:52:11;13.90;99.90